Centerville, Kansas
Current Conditions -  °F | °C
As of 5:53 PM on Wednesday 26 Nov 2014 (Local Time) from KIXD Reporting Station
Overcast Overcast  
Wind Chill: 21°   Ceiling: 2300
Heat Index: 32°   Visibility: 10mi
Dew Point: 23°   Wind: 17mph
Humidity: 69%   Direction: 310°NW
Pressure: 30.21"   Gusts: 31mph
Location:  38.22°N, 95.01°W
Report Text: KIXD 262353Z 31015G27KT 10SM OVC023 00/M05 A3021 RMK AO2 PK WND 33028/2341 SLP238 T00001050 10067 20000 51035
Loading
Personal Weather Stations






























Interactive Weather Map New forecast layout! Learn more

10-Day Weather Forecast

Advertisements
Track Severe Weather on mobile